Time;durP1;ratioP1;P1;durP2;ratioP2;P2;SDS_P1;SDS_P2;PMS_P1;PMS_P2;Temp;Humidity;BMP_temperature;BMP_pressure;BME280_temperature;BME280_humidity;BME280_pressure;Samples;Min_cycle;Max_cycle;Signal;HPM_P1;HPM_P2
2022/03/16 00:01:43;;;;;;;;;;;7.20;88.90;;;;;;5032344;28;19913;-86
2022/03/16 00:04:08;;;;;;;;;;;7.30;89.00;;;;;;5030691;28;19909;-86
2022/03/16 00:06:34;;;;;;;;;;;7.40;89.00;;;;;;5035021;28;19964;-86
2022/03/16 00:09:00;;;;;;;;;;;7.40;88.60;;;;;;5035859;28;19909;-86
2022/03/16 00:11:26;;;;;;;;;;;7.40;88.50;;;;;;5035880;28;19996;-85
2022/03/16 00:13:51;;;;;;;;;;;7.40;87.70;;;;;;5034840;28;20302;-86
2022/03/16 00:16:17;;;;;;;;;;;7.20;86.80;;;;;;5035598;28;19913;-85
2022/03/16 00:18:42;;;;;;;;;;;7.00;86.90;;;;;;5035518;28;20370;-85
2022/03/16 00:21:08;;;;;;;;;;;6.80;87.40;;;;;;5035738;28;19917;-85
2022/03/16 00:23:34;;;;;;;;;;;6.80;88.20;;;;;;5035310;28;19958;-86
2022/03/16 00:25:59;;;;;;;;;;;6.80;88.60;;;;;;5035635;28;19956;-86
2022/03/16 00:28:25;;;;;;;;;;;6.80;88.90;;;;;;5035571;28;19940;-86
2022/03/16 00:30:50;;;;;;;;;;;6.90;89.00;;;;;;5035409;28;19909;-86
2022/03/16 00:33:16;;;;;;;;;;;6.90;89.10;;;;;;5034941;28;19909;-86
2022/03/16 00:35:41;;;;;;;;;;;6.90;89.00;;;;;;5035444;28;19979;-86
2022/03/16 00:38:07;;;;;;;;;;;6.90;89.00;;;;;;5035385;28;19916;-86
2022/03/16 00:40:33;;;;;;;;;;;6.90;88.90;;;;;;5035163;28;19920;-86
2022/03/16 00:42:58;;;;;;;;;;;7.00;88.80;;;;;;5035060;28;20371;-85
2022/03/16 00:45:24;;;;;;;;;;;6.90;88.60;;;;;;5035258;28;19915;-86
2022/03/16 00:47:49;;;;;;;;;;;7.00;88.60;;;;;;5035204;28;20002;-86
2022/03/16 00:50:15;;;;;;;;;;;7.00;88.60;;;;;;5034892;28;19913;-86
2022/03/16 00:52:41;;;;;;;;;;;7.10;88.50;;;;;;5034996;28;19909;-86
2022/03/16 00:55:07;;;;;;;;;;;7.10;88.20;;;;;;5035032;28;19955;-86
2022/03/16 00:57:32;;;;;;;;;;;7.10;88.00;;;;;;5035040;28;19975;-86
2022/03/16 00:59:58;;;;;;;;;;;7.00;87.80;;;;;;5035012;28;20282;-85
2022/03/16 01:02:24;;;;;;;;;;;6.90;88.20;;;;;;5034863;28;19913;-86
2022/03/16 01:04:50;;;;;;;;;;;6.90;88.80;;;;;;5034209;28;19920;-85
2022/03/16 01:07:15;;;;;;;;;;;6.90;89.10;;;;;;5034821;28;20293;-85
2022/03/16 01:09:41;;;;;;;;;;;6.80;89.40;;;;;;5034760;28;19917;-85
2022/03/16 01:12:07;;;;;;;;;;;6.80;89.70;;;;;;5034707;28;19909;-86
2022/03/16 01:14:32;;;;;;;;;;;6.80;89.80;;;;;;5034702;28;19917;-86
2022/03/16 01:16:58;;;;;;;;;;;6.80;90.00;;;;;;5034579;28;20382;-85
2022/03/16 01:19:23;;;;;;;;;;;6.80;90.20;;;;;;5034283;28;19913;-85
2022/03/16 01:21:49;;;;;;;;;;;6.80;90.60;;;;;;5034808;28;19920;-86
2022/03/16 01:24:15;;;;;;;;;;;6.80;90.90;;;;;;5034250;28;19960;-86
2022/03/16 01:26:40;;;;;;;;;;;6.90;91.10;;;;;;5034497;28;19909;-86
2022/03/16 01:29:06;;;;;;;;;;;6.90;91.20;;;;;;5034402;28;19996;-86
2022/03/16 01:31:31;;;;;;;;;;;7.00;91.20;;;;;;5034322;28;19917;-86
2022/03/16 01:33:57;;;;;;;;;;;7.20;91.10;;;;;;5033733;28;19920;-86
2022/03/16 01:36:24;;;;;;;;;;;7.30;90.90;;;;;;5034251;28;20004;-86
2022/03/16 01:38:50;;;;;;;;;;;7.20;90.30;;;;;;5034184;28;19909;-86
2022/03/16 01:41:15;;;;;;;;;;;7.20;90.10;;;;;;5033882;28;19927;-85
2022/03/16 01:43:41;;;;;;;;;;;7.30;89.90;;;;;;5033844;28;20016;-85
2022/03/16 01:46:06;;;;;;;;;;;7.30;89.80;;;;;;5034092;28;19975;-86
2022/03/16 01:48:32;;;;;;;;;;;7.40;89.80;;;;;;5033788;28;19967;-85
2022/03/16 01:50:57;;;;;;;;;;;7.40;89.50;;;;;;5032725;28;19909;-85
2022/03/16 01:53:24;;;;;;;;;;;7.40;89.10;;;;;;5033964;28;19924;-86
2022/03/16 01:55:50;;;;;;;;;;;7.40;89.00;;;;;;5034197;28;19909;-86
2022/03/16 01:58:17;;;;;;;;;;;7.40;89.10;;;;;;5033894;28;19932;-85
2022/03/16 02:00:43;;;;;;;;;;;7.50;89.20;;;;;;5033823;28;20329;-86
2022/03/16 02:03:08;;;;;;;;;;;7.50;89.10;;;;;;5033237;28;19917;-86
2022/03/16 02:05:34;;;;;;;;;;;7.60;89.10;;;;;;5033602;28;20367;-86
2022/03/16 02:08:00;;;;;;;;;;;7.60;89.00;;;;;;5033733;28;19995;-86
2022/03/16 02:10:26;;;;;;;;;;;7.70;89.00;;;;;;5033664;28;20363;-86
2022/03/16 02:12:52;;;;;;;;;;;7.80;88.90;;;;;;5033675;28;20167;-86
2022/03/16 02:15:18;;;;;;;;;;;7.80;88.60;;;;;;5033334;28;19983;-86
2022/03/16 02:17:44;;;;;;;;;;;7.90;88.30;;;;;;5033589;28;20365;-86
2022/03/16 02:20:10;;;;;;;;;;;7.90;88.20;;;;;;5032038;28;19939;-86
2022/03/16 02:22:36;;;;;;;;;;;7.90;88.10;;;;;;5032395;28;19917;-86
2022/03/16 02:25:03;;;;;;;;;;;8.10;87.80;;;;;;5033473;28;19916;-85
2022/03/16 02:27:29;;;;;;;;;;;8.00;86.70;;;;;;5033477;28;19996;-86
2022/03/16 02:29:54;;;;;;;;;;;8.10;86.20;;;;;;5032589;28;19956;-86
2022/03/16 02:32:20;;;;;;;;;;;8.00;85.90;;;;;;5033304;28;19916;-86
2022/03/16 02:34:45;;;;;;;;;;;7.90;85.60;;;;;;5032893;28;19920;-85
2022/03/16 02:37:11;;;;;;;;;;;8.00;85.60;;;;;;5033092;28;19913;-86
2022/03/16 02:39:36;;;;;;;;;;;7.90;85.80;;;;;;5032946;28;19909;-86
2022/03/16 02:42:03;;;;;;;;;;;7.90;85.90;;;;;;5031692;28;19921;-86
2022/03/16 02:44:28;;;;;;;;;;;8.00;85.80;;;;;;5033187;28;19909;-86
2022/03/16 02:46:54;;;;;;;;;;;8.10;85.90;;;;;;5033165;28;19913;-86
2022/03/16 02:49:19;;;;;;;;;;;8.30;85.50;;;;;;5032824;28;19920;-85
2022/03/16 02:51:45;;;;;;;;;;;8.40;85.00;;;;;;5032694;28;19913;-86
2022/03/16 02:54:10;;;;;;;;;;;8.40;84.60;;;;;;5032816;28;19996;-86
2022/03/16 02:56:36;;;;;;;;;;;8.40;84.80;;;;;;5033001;28;20000;-86
2022/03/16 02:59:02;;;;;;;;;;;8.40;85.10;;;;;;5032979;28;20303;-86
2022/03/16 03:01:29;;;;;;;;;;;8.40;84.90;;;;;;5032968;28;19909;-86
2022/03/16 03:03:55;;;;;;;;;;;8.50;84.70;;;;;;5032749;28;19963;-86
2022/03/16 03:06:21;;;;;;;;;;;8.50;84.20;;;;;;5032870;28;19913;-86
2022/03/16 03:08:46;;;;;;;;;;;8.30;84.30;;;;;;5031336;28;19960;-86
2022/03/16 03:11:12;;;;;;;;;;;8.10;85.10;;;;;;5032935;28;20345;-85
2022/03/16 03:13:38;;;;;;;;;;;8.00;85.70;;;;;;5032924;28;19917;-85
2022/03/16 03:16:04;;;;;;;;;;;7.90;85.90;;;;;;5032858;28;19909;-85
2022/03/16 03:18:29;;;;;;;;;;;7.90;86.00;;;;;;5033180;28;19909;-86
2022/03/16 03:20:55;;;;;;;;;;;7.90;86.10;;;;;;5032444;28;19913;-86
2022/03/16 03:23:20;;;;;;;;;;;7.90;86.10;;;;;;5032329;28;19917;-86
2022/03/16 03:25:46;;;;;;;;;;;8.00;85.90;;;;;;5032767;28;19999;-86
2022/03/16 03:28:11;;;;;;;;;;;8.00;85.70;;;;;;5032736;28;19916;-86
2022/03/16 03:30:37;;;;;;;;;;;8.10;85.50;;;;;;5032310;28;19913;-86
2022/03/16 03:33:02;;;;;;;;;;;8.10;85.40;;;;;;5031459;28;20028;-86
2022/03/16 03:35:28;;;;;;;;;;;8.20;85.30;;;;;;5032395;28;19928;-86
2022/03/16 03:37:54;;;;;;;;;;;8.20;85.10;;;;;;5032683;28;19909;-86
2022/03/16 03:40:20;;;;;;;;;;;8.20;84.90;;;;;;5031816;28;19920;-86
2022/03/16 03:42:45;;;;;;;;;;;8.20;84.80;;;;;;5036907;28;19909;-86
2022/03/16 03:45:11;;;;;;;;;;;8.20;84.70;;;;;;5036415;28;19912;-86
2022/03/16 03:47:36;;;;;;;;;;;8.20;84.50;;;;;;5036346;28;19909;-86
2022/03/16 03:50:02;;;;;;;;;;;8.20;84.20;;;;;;5036020;28;19913;-85
2022/03/16 03:52:28;;;;;;;;;;;8.00;84.20;;;;;;5035822;28;19958;-85
2022/03/16 03:54:53;;;;;;;;;;;7.80;84.50;;;;;;5035984;28;19917;-85
2022/03/16 03:57:19;;;;;;;;;;;7.60;84.80;;;;;;5036175;28;19909;-85
2022/03/16 03:59:44;;;;;;;;;;;7.50;85.10;;;;;;5035861;28;19909;-86
2022/03/16 04:02:10;;;;;;;;;;;7.40;85.70;;;;;;5036136;28;20151;-86
2022/03/16 04:04:35;;;;;;;;;;;7.30;86.20;;;;;;5035715;28;19968;-86
2022/03/16 04:07:01;;;;;;;;;;;7.20;86.30;;;;;;5035751;28;19917;-86
2022/03/16 04:09:26;;;;;;;;;;;7.00;86.80;;;;;;5035889;28;19909;-86
2022/03/16 04:11:52;;;;;;;;;;;6.90;87.30;;;;;;5035656;28;19979;-85
2022/03/16 04:14:18;;;;;;;;;;;6.90;87.90;;;;;;5034596;28;19945;-86
2022/03/16 04:16:43;;;;;;;;;;;6.90;88.20;;;;;;5035831;28;20286;-86
2022/03/16 04:19:09;;;;;;;;;;;6.90;88.50;;;;;;5035824;28;19917;-86
2022/03/16 04:21:35;;;;;;;;;;;7.10;88.50;;;;;;5035433;28;19909;-86
2022/03/16 04:24:02;;;;;;;;;;;7.10;88.50;;;;;;5035525;28;20400;-86
2022/03/16 04:26:27;;;;;;;;;;;7.20;88.30;;;;;;5035343;28;19913;-86
2022/03/16 04:28:53;;;;;;;;;;;7.20;88.10;;;;;;5034438;28;20018;-86
2022/03/16 04:31:18;;;;;;;;;;;7.30;87.90;;;;;;5035489;28;19917;-86
2022/03/16 04:33:44;;;;;;;;;;;7.30;87.80;;;;;;5035246;28;19909;-85
2022/03/16 04:36:10;;;;;;;;;;;7.20;87.30;;;;;;5034181;28;19913;-85
2022/03/16 04:38:35;;;;;;;;;;;7.10;87.20;;;;;;5033815;28;19909;-85
2022/03/16 04:41:01;;;;;;;;;;;7.10;87.30;;;;;;5035236;28;19925;-86
2022/03/16 04:43:27;;;;;;;;;;;7.00;87.40;;;;;;5035074;28;19921;-85
2022/03/16 04:45:53;;;;;;;;;;;7.10;87.20;;;;;;5034995;28;19962;-86
2022/03/16 04:48:18;;;;;;;;;;;7.00;87.40;;;;;;5035502;28;19916;-85
2022/03/16 04:50:44;;;;;;;;;;;7.00;87.40;;;;;;5034532;28;20330;-85
2022/03/16 04:53:09;;;;;;;;;;;6.90;87.40;;;;;;5034706;28;19919;-86
2022/03/16 04:55:36;;;;;;;;;;;6.90;87.50;;;;;;5034662;28;19999;-86
2022/03/16 04:58:05;;;;;;;;;;;6.90;87.50;;;;;;5035321;28;19915;-86
2022/03/16 05:00:31;;;;;;;;;;;6.90;87.20;;;;;;5034987;28;20275;-86
2022/03/16 05:02:57;;;;;;;;;;;6.90;87.30;;;;;;5033398;28;19917;-86
2022/03/16 05:05:22;;;;;;;;;;;6.90;87.40;;;;;;5034622;28;20362;-86
2022/03/16 05:07:48;;;;;;;;;;;6.90;87.40;;;;;;5034871;28;20324;-86
2022/03/16 05:10:13;;;;;;;;;;;6.90;87.10;;;;;;5034790;28;19966;-86
2022/03/16 05:12:39;;;;;;;;;;;6.90;86.70;;;;;;5034518;28;19913;-85
2022/03/16 05:15:06;;;;;;;;;;;6.90;86.60;;;;;;5034475;28;20171;-86
2022/03/16 05:17:31;;;;;;;;;;;6.90;86.90;;;;;;5034599;28;19952;-85
2022/03/16 05:19:57;;;;;;;;;;;6.80;87.70;;;;;;5034361;28;19955;-85
2022/03/16 05:22:22;;;;;;;;;;;6.70;88.20;;;;;;5034155;28;19924;-85
2022/03/16 05:24:48;;;;;;;;;;;6.70;88.80;;;;;;5034226;28;19909;-85
2022/03/16 05:27:13;;;;;;;;;;;6.70;88.40;;;;;;5034513;28;19968;-85
2022/03/16 05:29:39;;;;;;;;;;;6.70;88.10;;;;;;5034393;28;19932;-86
2022/03/16 05:32:05;;;;;;;;;;;6.80;87.90;;;;;;5033537;28;20000;-86
2022/03/16 05:34:30;;;;;;;;;;;6.80;88.10;;;;;;5034440;28;19996;-86
2022/03/16 05:36:56;;;;;;;;;;;6.90;88.20;;;;;;5027721;28;19917;-86
2022/03/16 05:39:21;;;;;;;;;;;6.90;88.30;;;;;;5034240;28;20283;-86
2022/03/16 05:41:47;;;;;;;;;;;7.00;88.40;;;;;;5033252;28;19921;-86
2022/03/16 05:44:12;;;;;;;;;;;7.10;88.20;;;;;;5034116;28;19916;-86
2022/03/16 05:46:38;;;;;;;;;;;7.10;88.20;;;;;;5034116;28;19940;-86
2022/03/16 05:49:03;;;;;;;;;;;7.10;88.30;;;;;;5034021;28;19913;-85
2022/03/16 05:51:29;;;;;;;;;;;7.10;88.00;;;;;;5033483;28;19917;-86
2022/03/16 05:53:54;;;;;;;;;;;7.00;88.20;;;;;;5034279;28;19910;-85
2022/03/16 05:56:20;;;;;;;;;;;6.90;88.40;;;;;;5033444;28;19913;-85
2022/03/16 05:58:45;;;;;;;;;;;6.90;88.80;;;;;;5033596;28;20024;-85
2022/03/16 06:01:11;;;;;;;;;;;6.90;89.00;;;;;;5033567;28;20346;-85
2022/03/16 06:03:36;;;;;;;;;;;6.90;89.30;;;;;;5032991;28;19919;-85
2022/03/16 06:06:04;;;;;;;;;;;6.90;89.30;;;;;;5032095;28;20275;-86
2022/03/16 06:08:30;;;;;;;;;;;7.00;89.40;;;;;;5033444;28;20007;-86
2022/03/16 06:10:55;;;;;;;;;;;7.10;89.30;;;;;;5033678;28;20004;-86
2022/03/16 06:13:21;;;;;;;;;;;7.20;89.00;;;;;;5033486;28;20381;-86
2022/03/16 06:15:47;;;;;;;;;;;7.40;88.60;;;;;;5033355;28;19920;-86
2022/03/16 06:18:12;;;;;;;;;;;7.50;88.00;;;;;;5033581;28;20286;-86
2022/03/16 06:20:38;;;;;;;;;;;7.60;87.60;;;;;;5033470;28;19913;-85
2022/03/16 06:23:05;;;;;;;;;;;7.60;87.30;;;;;;5033006;28;19921;-86
2022/03/16 06:25:33;;;;;;;;;;;7.70;87.30;;;;;;5033128;28;19974;-85
2022/03/16 06:27:59;;;;;;;;;;;7.70;87.20;;;;;;5033647;28;19909;-85
2022/03/16 06:30:25;;;;;;;;;;;7.50;87.80;;;;;;5032896;28;19942;-85
2022/03/16 06:32:50;;;;;;;;;;;7.40;88.30;;;;;;5033020;28;19920;-85
2022/03/16 06:35:16;;;;;;;;;;;7.30;88.90;;;;;;5030571;28;20391;-85
2022/03/16 06:37:42;;;;;;;;;;;7.30;89.10;;;;;;5031623;28;20387;-85
2022/03/16 06:40:08;;;;;;;;;;;7.30;89.50;;;;;;5043139;22;19913;-86
2022/03/16 06:42:33;;;;;;;;;;;7.30;89.40;;;;;;5043408;28;20293;-86
2022/03/16 06:44:59;;;;;;;;;;;7.30;89.50;;;;;;5051963;28;19920;-86
2022/03/16 06:47:25;;;;;;;;;;;7.30;89.50;;;;;;5049373;28;20404;-86
2022/03/16 06:49:50;;;;;;;;;;;7.40;89.70;;;;;;5040768;28;20359;-86
2022/03/16 06:52:16;;;;;;;;;;;7.50;89.60;;;;;;5062199;28;19925;-86
2022/03/16 06:54:41;;;;;;;;;;;7.60;89.20;;;;;;5048944;28;20423;-86
2022/03/16 06:57:07;;;;;;;;;;;7.80;88.90;;;;;;5057247;28;19999;-86
2022/03/16 06:59:33;;;;;;;;;;;7.80;88.70;;;;;;5051751;28;20285;-87
2022/03/16 07:01:58;;;;;;;;;;;7.90;88.30;;;;;;5063445;28;20319;-86
2022/03/16 07:04:24;;;;;;;;;;;7.90;88.30;;;;;;5058284;28;20385;-86
2022/03/16 07:06:50;;;;;;;;;;;8.00;88.30;;;;;;5052995;28;20484;-86
2022/03/16 07:09:15;;;;;;;;;;;8.00;88.30;;;;;;5045231;28;19916;-86
2022/03/16 07:11:41;;;;;;;;;;;8.10;88.20;;;;;;5034974;28;19917;-86
2022/03/16 07:16:50;;;;;;;;;;;8.30;88.10;;;;;;5038753;28;19920;-86
2022/03/16 07:19:16;;;;;;;;;;;8.40;88.10;;;;;;5049353;28;19913;-86
2022/03/16 07:21:42;;;;;;;;;;;8.70;87.40;;;;;;5050768;28;19913;-86
2022/03/16 07:24:08;;;;;;;;;;;8.90;86.80;;;;;;5033713;28;20310;-86
2022/03/16 07:26:33;;;;;;;;;;;9.10;86.00;;;;;;5047997;28;19924;-86
2022/03/16 07:28:59;;;;;;;;;;;9.30;84.90;;;;;;5055456;28;19927;-86
2022/03/16 07:31:25;;;;;;;;;;;9.40;84.20;;;;;;5061182;28;19912;-86
2022/03/16 07:33:50;;;;;;;;;;;9.50;81.50;;;;;;5062603;28;20351;-85
2022/03/16 07:36:16;;;;;;;;;;;9.60;81.00;;;;;;5055018;28;20404;-86
2022/03/16 07:38:42;;;;;;;;;;;9.50;79.30;;;;;;5052611;28;19913;-86
2022/03/16 07:41:07;;;;;;;;;;;9.50;78.30;;;;;;5050422;28;20011;-86
2022/03/16 07:43:33;;;;;;;;;;;9.30;79.10;;;;;;5043174;28;20020;-86
2022/03/16 07:45:58;;;;;;;;;;;9.40;78.70;;;;;;5047916;28;19921;-86
2022/03/16 07:48:24;;;;;;;;;;;9.40;79.10;;;;;;5052653;28;19921;-86
2022/03/16 07:50:50;;;;;;;;;;;9.50;79.30;;;;;;5054703;28;20003;-86
2022/03/16 07:53:16;;;;;;;;;;;9.70;78.80;;;;;;5053922;28;19913;-86
2022/03/16 07:55:41;;;;;;;;;;;9.90;78.40;;;;;;5049632;28;19913;-86
2022/03/16 07:58:07;;;;;;;;;;;10.10;77.90;;;;;;5032014;28;20681;-86
2022/03/16 08:00:32;;;;;;;;;;;10.30;77.40;;;;;;5050797;28;19967;-86
2022/03/16 08:03:02;;;;;;;;;;;10.40;76.80;;;;;;5041316;28;19924;-87
2022/03/16 08:05:28;;;;;;;;;;;10.50;76.70;;;;;;5050190;28;19912;-86
2022/03/16 08:07:53;;;;;;;;;;;10.60;76.50;;;;;;5047884;28;19982;-86
2022/03/16 08:10:19;;;;;;;;;;;10.50;76.00;;;;;;5038043;28;20321;-86
2022/03/16 08:12:45;;;;;;;;;;;10.60;76.20;;;;;;5060566;28;19912;-86
2022/03/16 08:15:10;;;;;;;;;;;10.50;76.30;;;;;;5051320;28;20419;-86
2022/03/16 08:17:36;;;;;;;;;;;10.40;76.30;;;;;;5056494;28;19951;-86
2022/03/16 08:20:02;;;;;;;;;;;10.50;76.40;;;;;;5050666;28;19913;-86
2022/03/16 08:22:29;;;;;;;;;;;10.40;77.00;;;;;;5052165;28;19924;-86
2022/03/16 08:24:55;;;;;;;;;;;10.40;77.10;;;;;;5056878;28;19920;-87
2022/03/16 08:27:21;;;;;;;;;;;10.60;76.70;;;;;;5054405;28;20009;-86
2022/03/16 08:29:47;;;;;;;;;;;10.80;76.90;;;;;;5052170;28;20455;-87
2022/03/16 08:32:12;;;;;;;;;;;10.90;75.90;;;;;;5045333;28;19920;-86
2022/03/16 08:34:38;;;;;;;;;;;11.10;75.70;;;;;;5058791;28;20397;-86
2022/03/16 08:37:03;;;;;;;;;;;11.10;75.80;;;;;;5048316;28;20314;-86
2022/03/16 08:39:29;;;;;;;;;;;11.30;74.70;;;;;;5049924;28;19945;-86
2022/03/16 08:41:55;;;;;;;;;;;11.40;73.90;;;;;;5048504;28;19928;-86
2022/03/16 08:44:22;;;;;;;;;;;11.50;74.00;;;;;;5045752;28;19913;-86
2022/03/16 08:46:50;;;;;;;;;;;11.60;73.60;;;;;;5048164;28;19956;-86
2022/03/16 08:49:16;;;;;;;;;;;11.40;72.90;;;;;;5050039;28;19913;-86
2022/03/16 08:51:41;;;;;;;;;;;11.20;73.40;;;;;;5040694;28;19913;-86
2022/03/16 08:54:07;;;;;;;;;;;11.10;74.10;;;;;;5037818;28;20385;-85
2022/03/16 08:56:33;;;;;;;;;;;11.10;74.80;;;;;;5040924;28;19920;-86
2022/03/16 08:59:00;;;;;;;;;;;11.30;74.50;;;;;;5054322;28;19970;-86
2022/03/16 09:01:26;;;;;;;;;;;11.30;74.40;;;;;;5051140;28;19920;-86
2022/03/16 09:03:53;;;;;;;;;;;11.40;73.90;;;;;;5050651;28;20374;-86
2022/03/16 09:06:19;;;;;;;;;;;11.70;73.90;;;;;;5048551;28;19920;-86
2022/03/16 09:08:45;;;;;;;;;;;11.90;73.30;;;;;;5051896;28;19913;-86
2022/03/16 09:11:10;;;;;;;;;;;12.10;71.70;;;;;;5046623;28;20306;-86
2022/03/16 09:13:36;;;;;;;;;;;12.40;70.40;;;;;;5047120;28;19919;-86
2022/03/16 09:16:01;;;;;;;;;;;12.50;68.60;;;;;;5048924;28;20012;-87
2022/03/16 09:18:28;;;;;;;;;;;12.60;69.40;;;;;;5051529;28;19982;-86
2022/03/16 09:20:53;;;;;;;;;;;12.40;70.60;;;;;;5058308;28;19958;-86
2022/03/16 09:23:19;;;;;;;;;;;12.20;71.90;;;;;;5050160;28;19916;-86
2022/03/16 09:25:45;;;;;;;;;;;12.20;71.90;;;;;;5045236;28;19913;-87
2022/03/16 09:28:10;;;;;;;;;;;12.30;71.30;;;;;;5050343;28;19913;-86
2022/03/16 09:30:36;;;;;;;;;;;12.40;69.80;;;;;;5048127;28;19920;-86
2022/03/16 09:33:02;;;;;;;;;;;12.40;69.10;;;;;;5044552;28;20367;-86
2022/03/16 09:35:30;;;;;;;;;;;12.50;69.00;;;;;;5047649;28;19913;-86
2022/03/16 09:37:58;;;;;;;;;;;12.40;69.20;;;;;;5048303;28;19913;-87
2022/03/16 09:40:24;;;;;;;;;;;12.50;70.10;;;;;;5048008;28;19925;-87
2022/03/16 09:42:51;;;;;;;;;;;12.80;69.60;;;;;;5050850;28;19916;-86
2022/03/16 09:45:17;;;;;;;;;;;13.10;67.30;;;;;;5051469;28;19913;-87
2022/03/16 09:47:44;;;;;;;;;;;13.30;66.80;;;;;;5050310;28;19912;-87
2022/03/16 09:50:10;;;;;;;;;;;13.30;66.40;;;;;;5049232;28;19921;-86
2022/03/16 09:52:35;;;;;;;;;;;13.50;66.10;;;;;;5055026;28;19935;-86
2022/03/16 09:55:02;;;;;;;;;;;13.40;66.70;;;;;;5051310;28;19913;-86
2022/03/16 09:57:28;;;;;;;;;;;13.30;66.20;;;;;;5053146;28;19973;-86
2022/03/16 09:59:53;;;;;;;;;;;13.30;66.10;;;;;;5049887;28;20319;-86
2022/03/16 10:02:21;;;;;;;;;;;13.10;67.10;;;;;;5049555;28;20378;-86
2022/03/16 10:04:47;;;;;;;;;;;12.80;65.70;;;;;;5050269;28;19972;-86
2022/03/16 10:07:12;;;;;;;;;;;12.80;66.50;;;;;;5048667;28;19916;-86
2022/03/16 10:15:10;;;;;;;;;;;13.10;66.30;;;;;;5050893;28;20377;-86
2022/03/16 10:17:45;;;;;;;;;;;13.10;66.20;;;;;;5048376;28;19912;-87
2022/03/16 10:20:21;;;;;;;;;;;13.30;66.70;;;;;;5047762;28;19969;-86
2022/03/16 10:22:54;;;;;;;;;;;13.40;64.90;;;;;;5045693;28;19917;-86
2022/03/16 10:25:20;;;;;;;;;;;13.40;65.20;;;;;;5049932;28;19920;-86
2022/03/16 10:27:46;;;;;;;;;;;13.30;64.40;;;;;;5047370;28;19921;-86
2022/03/16 10:30:13;;;;;;;;;;;13.10;64.90;;;;;;5047799;28;20035;-86
2022/03/16 10:32:39;;;;;;;;;;;13.00;65.50;;;;;;5043529;28;19990;-87
2022/03/16 10:35:07;;;;;;;;;;;13.20;64.80;;;;;;5053718;28;20360;-86
2022/03/16 10:37:36;;;;;;;;;;;13.40;64.40;;;;;;5049556;28;20454;-87
2022/03/16 10:40:14;;;;;;;;;;;13.70;63.60;;;;;;5051241;28;20604;-86
2022/03/16 10:48:16;;;;;;;;;;;14.20;60.80;;;;;;5050277;28;19966;-86
2022/03/16 10:50:42;;;;;;;;;;;14.10;61.90;;;;;;5061244;28;19908;-87
2022/03/16 10:53:09;;;;;;;;;;;14.20;62.00;;;;;;5053008;28;20278;-87
2022/03/16 10:55:36;;;;;;;;;;;14.50;60.80;;;;;;5057256;28;19913;-87
2022/03/16 10:58:02;;;;;;;;;;;14.80;60.50;;;;;;5045130;28;19921;-86
2022/03/16 11:00:27;;;;;;;;;;;14.80;59.10;;;;;;5051234;28;20042;-87
2022/03/16 11:02:53;;;;;;;;;;;14.90;58.50;;;;;;5055267;28;19929;-87
2022/03/16 11:05:20;;;;;;;;;;;14.50;58.90;;;;;;5067749;28;19919;-86
2022/03/16 11:07:49;;;;;;;;;;;14.30;60.70;;;;;;5062890;28;19908;-86
2022/03/16 11:10:15;;;;;;;;;;;14.20;61.00;;;;;;5057369;28;20011;-86
2022/03/16 11:15:25;;;;;;;;;;;14.20;60.80;;;;;;5052807;28;20398;-86
2022/03/16 11:17:51;;;;;;;;;;;14.20;61.30;;;;;;5052759;28;19909;-86
2022/03/16 11:20:19;;;;;;;;;;;14.40;61.20;;;;;;5052989;28;19908;-86
2022/03/16 11:25:48;;;;;;;;;;;15.00;60.10;;;;;;5053356;28;19920;-87
2022/03/16 11:28:16;;;;;;;;;;;15.30;57.80;;;;;;5053013;28;19932;-87
2022/03/16 11:30:42;;;;;;;;;;;15.20;58.20;;;;;;5052602;28;19948;-87
2022/03/16 11:33:10;;;;;;;;;;;15.30;57.70;;;;;;5052730;28;19994;-87
2022/03/16 11:35:37;;;;;;;;;;;15.60;57.10;;;;;;5052871;28;19913;-87
2022/03/16 11:38:10;;;;;;;;;;;15.50;57.40;;;;;;5052908;28;19962;-87
2022/03/16 11:40:38;;;;;;;;;;;15.80;56.20;;;;;;5052487;28;19979;-87
2022/03/16 11:43:04;;;;;;;;;;;15.90;55.10;;;;;;5052321;28;19923;-87
2022/03/16 11:45:30;;;;;;;;;;;15.50;56.40;;;;;;5052576;28;20007;-87
2022/03/16 11:47:56;;;;;;;;;;;15.30;57.90;;;;;;5052541;28;19932;-86
2022/03/16 11:50:21;;;;;;;;;;;15.10;57.60;;;;;;5052535;28;20362;-86
2022/03/16 11:53:00;;;;;;;;;;;15.10;57.20;;;;;;5052280;28;19924;-87
2022/03/16 11:55:44;;;;;;;;;;;14.80;58.20;;;;;;5052371;28;19908;-87
2022/03/16 11:58:36;;;;;;;;;;;15.30;57.20;;;;;;5052664;28;19920;-86
2022/03/16 12:01:20;;;;;;;;;;;15.50;56.70;;;;;;5048298;28;19909;-87
2022/03/16 12:03:46;;;;;;;;;;;16.00;55.80;;;;;;5052682;28;20286;-87
2022/03/16 12:06:12;;;;;;;;;;;16.40;53.80;;;;;;5051557;28;19920;-87
2022/03/16 12:08:59;;;;;;;;;;;16.60;52.70;;;;;;5035816;28;19909;-87
2022/03/16 12:14:09;;;;;;;;;;;16.80;52.30;;;;;;5048267;28;20267;-87
2022/03/16 12:16:43;;;;;;;;;;;17.00;51.10;;;;;;5050652;28;19917;-87
2022/03/16 12:19:29;;;;;;;;;;;16.80;50.30;;;;;;5043333;28;19913;-86
2022/03/16 12:21:56;;;;;;;;;;;16.40;52.70;;;;;;5017917;28;20389;-87
2022/03/16 12:30:04;;;;;;;;;;;15.80;53.70;;;;;;5045296;28;20007;-86
2022/03/16 12:32:36;;;;;;;;;;;16.10;53.60;;;;;;5050186;28;19932;-87
2022/03/16 12:35:05;;;;;;;;;;;16.20;52.90;;;;;;5045256;28;20404;-87
2022/03/16 12:37:31;;;;;;;;;;;16.60;52.10;;;;;;5053578;28;19921;-87
2022/03/16 12:39:56;;;;;;;;;;;16.90;51.80;;;;;;5048119;28;19999;-87
2022/03/16 12:42:33;;;;;;;;;;;17.10;50.60;;;;;;5052769;28;19924;-87
2022/03/16 12:45:03;;;;;;;;;;;17.30;49.60;;;;;;5047354;28;20298;-86
2022/03/16 12:47:38;;;;;;;;;;;17.50;48.10;;;;;;5048253;28;20366;-87
2022/03/16 12:50:09;;;;;;;;;;;17.60;49.00;;;;;;5053708;28;20011;-87
2022/03/16 12:52:34;;;;;;;;;;;17.80;48.40;;;;;;5044686;28;19928;-88
2022/03/16 12:55:01;;;;;;;;;;;17.90;48.60;;;;;;5051568;28;19913;-87
2022/03/16 12:57:27;;;;;;;;;;;18.20;46.90;;;;;;5053818;28;19943;-87
2022/03/16 12:59:53;;;;;;;;;;;17.90;47.10;;;;;;5050077;28;20274;-86
2022/03/16 13:02:23;;;;;;;;;;;17.30;48.90;;;;;;5047871;28;19925;-86
2022/03/16 13:04:52;;;;;;;;;;;16.20;51.60;;;;;;5046176;28;19917;-87
2022/03/16 13:07:18;;;;;;;;;;;15.20;54.30;;;;;;5045464;28;20011;-86
2022/03/16 13:09:44;;;;;;;;;;;14.90;55.60;;;;;;5043272;28;20334;-86
2022/03/16 13:12:10;;;;;;;;;;;14.50;56.90;;;;;;5046071;28;19917;-86
2022/03/16 13:14:41;;;;;;;;;;;14.60;56.60;;;;;;5051878;28;20046;-86
2022/03/16 13:17:07;;;;;;;;;;;15.00;57.60;;;;;;5054116;28;19913;-86
2022/03/16 13:19:34;;;;;;;;;;;15.30;54.80;;;;;;5063445;28;19913;-87
2022/03/16 13:22:03;;;;;;;;;;;15.70;53.40;;;;;;5054794;28;20361;-87
2022/03/16 13:24:30;;;;;;;;;;;15.90;52.20;;;;;;5050667;28;20365;-87
2022/03/16 13:26:56;;;;;;;;;;;16.10;52.60;;;;;;5039634;28;19916;-87
2022/03/16 13:29:22;;;;;;;;;;;16.40;52.50;;;;;;5046542;28;19925;-87
2022/03/16 13:31:53;;;;;;;;;;;16.40;53.00;;;;;;5052650;28;19928;-86
2022/03/16 13:34:18;;;;;;;;;;;16.10;52.80;;;;;;5052489;28;20294;-86
2022/03/16 13:36:50;;;;;;;;;;;15.70;53.70;;;;;;5049214;28;19913;-86
2022/03/16 13:39:16;;;;;;;;;;;15.60;54.00;;;;;;5041842;28;20012;-86
2022/03/16 13:42:12;;;;;;;;;;;15.40;55.00;;;;;;5049345;28;20007;-87
2022/03/16 13:44:48;;;;;;;;;;;15.20;55.70;;;;;;5046529;28;19917;-87
2022/03/16 13:47:17;;;;;;;;;;;15.10;55.50;;;;;;5052180;28;19913;-86
2022/03/16 13:49:44;;;;;;;;;;;15.20;55.20;;;;;;5052777;28;19921;-87
2022/03/16 13:52:11;;;;;;;;;;;15.30;54.50;;;;;;5051393;28;19917;-87
2022/03/16 13:54:37;;;;;;;;;;;15.40;54.40;;;;;;5053176;28;20013;-87
2022/03/16 13:57:07;;;;;;;;;;;15.90;54.70;;;;;;5052188;28;20282;-87
2022/03/16 13:59:32;;;;;;;;;;;16.30;52.70;;;;;;5051936;28;19913;-87
2022/03/16 14:02:11;;;;;;;;;;;16.70;51.20;;;;;;5052230;28;19920;-87
2022/03/16 14:04:39;;;;;;;;;;;16.80;51.00;;;;;;5041632;28;19919;-87
2022/03/16 14:07:23;;;;;;;;;;;16.80;52.00;;;;;;5053209;28;20036;-87
2022/03/16 14:09:50;;;;;;;;;;;17.10;51.40;;;;;;5037964;28;19913;-87
2022/03/16 14:12:16;;;;;;;;;;;17.30;48.90;;;;;;5066781;28;20289;-87
2022/03/16 14:14:45;;;;;;;;;;;17.30;48.70;;;;;;5051403;28;19913;-87
2022/03/16 14:17:11;;;;;;;;;;;17.30;49.30;;;;;;5051336;28;19912;-87
2022/03/16 14:19:37;;;;;;;;;;;17.00;50.70;;;;;;5048434;28;20376;-87
2022/03/16 14:22:04;;;;;;;;;;;16.50;50.70;;;;;;5052118;28;19912;-86
2022/03/16 14:24:30;;;;;;;;;;;16.10;51.30;;;;;;5057493;28;19920;-86
2022/03/16 14:27:15;;;;;;;;;;;16.00;52.40;;;;;;5052945;28;19912;-87
2022/03/16 14:29:45;;;;;;;;;;;16.00;52.80;;;;;;5053408;28;20325;-87
2022/03/16 14:32:11;;;;;;;;;;;16.10;52.30;;;;;;5052964;28;19948;-87
2022/03/16 14:34:37;;;;;;;;;;;16.20;52.40;;;;;;5062945;28;19998;-87
2022/03/16 14:37:03;;;;;;;;;;;16.10;52.80;;;;;;5072826;28;20016;-87
2022/03/16 14:39:28;;;;;;;;;;;16.00;52.70;;;;;;5058529;28;19921;-87
2022/03/16 14:41:54;;;;;;;;;;;16.10;52.50;;;;;;5058523;22;19925;-87
2022/03/16 14:44:21;;;;;;;;;;;16.20;52.60;;;;;;5050492;28;20469;-87
2022/03/16 14:46:47;;;;;;;;;;;16.10;52.70;;;;;;5050377;28;19912;-87
2022/03/16 14:49:12;;;;;;;;;;;16.10;53.20;;;;;;5051049;28;19920;-87